Time;durP1;ratioP1;P1;durP2;ratioP2;P2;SDS_P1;SDS_P2;PMS_P1;PMS_P2;Temp;Humidity;BMP_temperature;BMP_pressure;BME280_temperature;BME280_humidity;BME280_pressure;Samples;Min_cycle;Max_cycle;Signal;HPM_P1;HPM_P2
2023/03/21 00:01:36;;;;;;;;;;;10.80;99.90;;;;;;4932514;29;19930;-82
2023/03/21 00:04:03;;;;;;;;;;;10.80;99.90;;;;;;4931294;29;19942;-81
2023/03/21 00:06:30;;;;;;;;;;;10.80;99.90;;;;;;4946785;29;19932;-80
2023/03/21 00:08:57;;;;;;;;;;;10.80;99.90;;;;;;4948358;29;19929;-80
2023/03/21 00:11:26;;;;;;;;;;;10.90;99.90;;;;;;4946370;29;19931;-80
2023/03/21 00:13:57;;;;;;;;;;;10.80;99.90;;;;;;4929602;29;19982;-82
2023/03/21 00:16:25;;;;;;;;;;;10.80;99.90;;;;;;4909353;29;20614;-81
2023/03/21 00:18:53;;;;;;;;;;;10.80;99.90;;;;;;4924454;29;19931;-81
2023/03/21 00:21:21;;;;;;;;;;;10.80;99.90;;;;;;4926477;29;19930;-81
2023/03/21 00:23:47;;;;;;;;;;;10.80;99.90;;;;;;4926080;29;20318;-81
2023/03/21 00:26:16;;;;;;;;;;;10.80;99.90;;;;;;4928169;29;19938;-81
2023/03/21 00:28:43;;;;;;;;;;;10.90;99.90;;;;;;4912021;29;20412;-82
2023/03/21 00:31:09;;;;;;;;;;;10.80;99.90;;;;;;4930143;29;19930;-81
2023/03/21 00:33:38;;;;;;;;;;;10.90;99.90;;;;;;4928116;29;19936;-81
2023/03/21 00:36:05;;;;;;;;;;;10.80;99.90;;;;;;4930851;29;19986;-81
2023/03/21 00:38:33;;;;;;;;;;;10.90;99.90;;;;;;4913438;29;19934;-81
2023/03/21 00:41:00;;;;;;;;;;;10.90;99.90;;;;;;4920239;29;19966;-81
2023/03/21 00:43:28;;;;;;;;;;;10.90;99.90;;;;;;4907646;29;19931;-81
2023/03/21 00:45:56;;;;;;;;;;;10.90;99.90;;;;;;4925579;29;20408;-82
2023/03/21 00:48:23;;;;;;;;;;;10.80;99.90;;;;;;4928859;29;19937;-80
2023/03/21 00:50:52;;;;;;;;;;;10.80;99.90;;;;;;4933439;29;19985;-80
2023/03/21 00:53:21;;;;;;;;;;;9.60;99.90;;;;;;4938863;29;19918;-81
2023/03/21 00:55:48;;;;;;;;;;;10.90;99.90;;;;;;4947575;29;19930;-80
2023/03/21 00:58:14;;;;;;;;;;;10.90;99.90;;;;;;4941438;29;19926;-80
2023/03/21 01:00:42;;;;;;;;;;;10.80;99.90;;;;;;4938139;29;19931;-80
2023/03/21 01:03:10;;;;;;;;;;;10.90;99.90;;;;;;4918717;29;20305;-80
2023/03/21 01:08:24;;;;;;;;;;;10.90;99.90;;;;;;4933113;29;19930;-80
2023/03/21 01:10:51;;;;;;;;;;;10.90;99.90;;;;;;4932892;29;20022;-80
2023/03/21 01:13:20;;;;;;;;;;;10.90;99.90;;;;;;4932018;29;19933;-81
2023/03/21 01:15:48;;;;;;;;;;;10.90;99.90;;;;;;4931299;29;19930;-80
2023/03/21 01:18:16;;;;;;;;;;;10.80;99.90;;;;;;4931336;29;19930;-80
2023/03/21 01:20:44;;;;;;;;;;;10.90;99.90;;;;;;4946758;29;19936;-80
2023/03/21 01:23:11;;;;;;;;;;;10.80;99.90;;;;;;4947349;29;19931;-80
2023/03/21 01:25:39;;;;;;;;;;;10.80;99.90;;;;;;4947020;29;19927;-80
2023/03/21 01:28:07;;;;;;;;;;;10.80;99.90;;;;;;4922862;29;19954;-80
2023/03/21 01:30:34;;;;;;;;;;;10.80;99.90;;;;;;4931283;28;19942;-81
2023/03/21 01:33:02;;;;;;;;;;;10.80;99.90;;;;;;4950680;29;19929;-80
2023/03/21 01:35:29;;;;;;;;;;;10.80;99.90;;;;;;4949517;29;19930;-81
2023/03/21 01:37:56;;;;;;;;;;;10.80;99.90;;;;;;4944153;29;20809;-80
2023/03/21 01:40:28;;;;;;;;;;;10.80;99.90;;;;;;4944367;29;20006;-79
2023/03/21 01:43:19;;;;;;;;;;;10.90;99.90;;;;;;4922180;29;19926;-80
2023/03/21 01:46:19;;;;;;;;;;;10.90;99.90;;;;;;4937420;29;20098;-80
2023/03/21 01:48:58;;;;;;;;;;;10.80;99.90;;;;;;4936359;29;19933;-80
2023/03/21 01:51:26;;;;;;;;;;;;;;;;;;4936179;29;20135;-80
2023/03/21 01:53:57;;;;;;;;;;;10.80;99.90;;;;;;4917926;29;19937;-80
2023/03/21 01:56:25;;;;;;;;;;;10.80;99.90;;;;;;4918685;29;19974;-80
2023/03/21 01:59:02;;;;;;;;;;;10.80;99.90;;;;;;4933744;29;19930;-80
2023/03/21 02:01:50;;;;;;;;;;;10.80;99.90;;;;;;4934799;29;19937;-80
2023/03/21 02:04:20;;;;;;;;;;;10.80;99.90;;;;;;4917359;29;19934;-81
2023/03/21 02:07:00;;;;;;;;;;;10.80;99.90;;;;;;4933842;29;19994;-81
2023/03/21 02:09:35;;;;;;;;;;;10.80;99.90;;;;;;4916725;29;19931;-81
2023/03/21 02:12:03;;;;;;;;;;;10.80;99.90;;;;;;4917079;29;19930;-81
2023/03/21 02:14:34;;;;;;;;;;;10.80;99.90;;;;;;4931896;29;20008;-81
2023/03/21 02:17:06;;;;;;;;;;;;;;;;;;4919029;29;19926;-80
2023/03/21 02:19:47;;;;;;;;;;;10.80;99.90;;;;;;4948777;29;19970;-81
2023/03/21 02:22:29;;;;;;;;;;;10.80;99.90;;;;;;4945773;29;19931;-80
2023/03/21 02:25:23;;;;;;;;;;;10.80;99.90;;;;;;4937262;29;19931;-81
2023/03/21 02:27:54;;;;;;;;;;;10.80;99.90;;;;;;4895212;29;20616;-81
2023/03/21 02:30:34;;;;;;;;;;;10.70;99.90;;;;;;4934383;29;19930;-81
2023/03/21 02:33:10;;;;;;;;;;;10.80;99.90;;;;;;4933140;29;20380;-81
2023/03/21 02:35:49;;;;;;;;;;;10.80;99.90;;;;;;4932846;29;20320;-81
2023/03/21 02:38:18;;;;;;;;;;;10.80;99.90;;;;;;4933865;29;19931;-81
2023/03/21 02:40:50;;;;;;;;;;;10.80;99.90;;;;;;4915900;29;20304;-83
2023/03/21 02:43:20;;;;;;;;;;;10.80;99.90;;;;;;4929020;29;20316;-83
2023/03/21 02:45:49;;;;;;;;;;;10.80;99.90;;;;;;4929689;29;19930;-83
2023/03/21 02:48:19;;;;;;;;;;;10.80;99.90;;;;;;4913177;29;20308;-82
2023/03/21 02:50:47;;;;;;;;;;;10.80;99.90;;;;;;4929315;29;19931;-83
2023/03/21 02:53:20;;;;;;;;;;;10.80;99.90;;;;;;4912053;29;19927;-82
2023/03/21 02:55:47;;;;;;;;;;;10.80;99.90;;;;;;4913556;29;19990;-83
2023/03/21 02:58:16;;;;;;;;;;;10.80;99.90;;;;;;4928124;29;19938;-83
2023/03/21 03:00:49;;;;;;;;;;;10.80;99.90;;;;;;4907287;29;20029;-83
2023/03/21 03:03:27;;;;;;;;;;;10.80;99.90;;;;;;4912251;29;20379;-82
2023/03/21 03:05:56;;;;;;;;;;;10.80;99.90;;;;;;4929386;29;20134;-82
2023/03/21 03:08:28;;;;;;;;;;;10.80;99.90;;;;;;4930752;29;19953;-82
2023/03/21 03:11:04;;;;;;;;;;;10.80;99.90;;;;;;4916491;29;19922;-83
2023/03/21 03:13:35;;;;;;;;;;;10.70;99.90;;;;;;4932744;29;19919;-83
2023/03/21 03:16:06;;;;;;;;;;;10.70;99.90;;;;;;4932180;29;19991;-83
2023/03/21 03:18:37;;;;;;;;;;;10.70;99.90;;;;;;4934448;29;19986;-82
2023/03/21 03:21:08;;;;;;;;;;;10.70;99.90;;;;;;4930203;29;20500;-82
2023/03/21 03:23:42;;;;;;;;;;;10.70;99.90;;;;;;4927198;29;19946;-83
2023/03/21 03:26:11;;;;;;;;;;;10.70;99.90;;;;;;4915398;29;19923;-84
2023/03/21 03:28:39;;;;;;;;;;;10.60;99.90;;;;;;4933613;29;19942;-84
2023/03/21 03:31:14;;;;;;;;;;;10.60;99.90;;;;;;4932279;29;19919;-84
2023/03/21 03:33:48;;;;;;;;;;;10.60;99.90;;;;;;4948528;29;19918;-84
2023/03/21 03:36:17;;;;;;;;;;;10.50;99.90;;;;;;4948410;29;19929;-84
2023/03/21 03:38:46;;;;;;;;;;;10.50;99.90;;;;;;4929669;29;20017;-83
2023/03/21 03:41:17;;;;;;;;;;;10.50;99.90;;;;;;4924889;29;19942;-84
2023/03/21 03:43:51;;;;;;;;;;;10.50;99.90;;;;;;4909812;29;19958;-83
2023/03/21 03:46:18;;;;;;;;;;;10.50;99.90;;;;;;4926485;29;19937;-84
2023/03/21 03:48:48;;;;;;;;;;;10.50;99.90;;;;;;4944914;29;19946;-84
2023/03/21 03:51:16;;;;;;;;;;;10.50;99.90;;;;;;4930365;29;19981;-83
2023/03/21 03:54:12;;;;;;;;;;;10.50;99.90;;;;;;4932660;29;19966;-83
2023/03/21 03:56:40;;;;;;;;;;;10.50;99.90;;;;;;4927357;29;19930;-84
2023/03/21 03:59:07;;;;;;;;;;;10.50;99.90;;;;;;4922247;29;20455;-83
2023/03/21 04:01:54;;;;;;;;;;;10.50;99.90;;;;;;4925124;29;20221;-83
2023/03/21 04:04:28;;;;;;;;;;;10.50;99.90;;;;;;4922382;29;19966;-83
2023/03/21 04:06:55;;;;;;;;;;;10.50;99.90;;;;;;4937770;29;20002;-84
2023/03/21 04:09:27;;;;;;;;;;;10.50;99.90;;;;;;4930331;29;19979;-83
2023/03/21 04:11:54;;;;;;;;;;;10.50;99.90;;;;;;4926465;29;19927;-82
2023/03/21 04:14:21;;;;;;;;;;;10.60;99.90;;;;;;4927541;29;19990;-84
2023/03/21 04:16:48;;;;;;;;;;;10.60;99.90;;;;;;4929058;29;19931;-82
2023/03/21 04:19:15;;;;;;;;;;;10.60;99.90;;;;;;4927060;29;20034;-82
2023/03/21 04:21:42;;;;;;;;;;;10.50;99.90;;;;;;4926624;29;20018;-83
2023/03/21 04:24:10;;;;;;;;;;;10.60;99.90;;;;;;4926728;29;19922;-82
2023/03/21 04:26:40;;;;;;;;;;;10.60;99.90;;;;;;4927696;29;19926;-84
2023/03/21 04:29:32;;;;;;;;;;;10.60;99.90;;;;;;4927419;29;19931;-82
2023/03/21 04:34:39;;;;;;;;;;;10.60;99.90;;;;;;4953063;28;19930;-79
2023/03/21 04:37:09;;;;;;;;;;;10.60;99.90;;;;;;4918451;29;20378;-81
2023/03/21 04:39:38;;;;;;;;;;;10.60;99.90;;;;;;4927229;29;19957;-80
2023/03/21 04:42:07;;;;;;;;;;;10.60;99.90;;;;;;4914401;29;19949;-81
2023/03/21 04:44:34;;;;;;;;;;;10.70;99.90;;;;;;4929946;29;19977;-79
2023/03/21 04:47:02;;;;;;;;;;;10.70;99.90;;;;;;4913968;29;19926;-80
2023/03/21 04:49:29;;;;;;;;;;;10.60;99.90;;;;;;4929435;29;21391;-79
2023/03/21 04:51:58;;;;;;;;;;;10.70;99.90;;;;;;4916134;29;20415;-80
2023/03/21 04:54:25;;;;;;;;;;;10.60;99.90;;;;;;4932606;29;20433;-81
2023/03/21 04:56:52;;;;;;;;;;;10.60;99.90;;;;;;4917158;29;19927;-79
2023/03/21 04:59:20;;;;;;;;;;;10.60;99.90;;;;;;4916845;29;19930;-80
2023/03/21 05:01:48;;;;;;;;;;;10.60;99.90;;;;;;4919458;29;19933;-81
2023/03/21 05:04:16;;;;;;;;;;;10.60;99.90;;;;;;4917042;29;19923;-79
2023/03/21 05:06:43;;;;;;;;;;;10.60;99.90;;;;;;4915427;29;20411;-79
2023/03/21 05:09:10;;;;;;;;;;;10.60;99.90;;;;;;4931851;29;19926;-79
2023/03/21 05:11:39;;;;;;;;;;;10.60;99.90;;;;;;4928087;29;19930;-79
2023/03/21 05:14:06;;;;;;;;;;;10.60;99.90;;;;;;4914113;29;19926;-80
2023/03/21 05:16:35;;;;;;;;;;;10.60;99.90;;;;;;4917846;29;19926;-80
2023/03/21 05:19:03;;;;;;;;;;;10.50;99.90;;;;;;4916749;29;19945;-80
2023/03/21 05:21:40;;;;;;;;;;;10.50;99.90;;;;;;4920135;29;19923;-80
2023/03/21 05:24:11;;;;;;;;;;;10.50;99.90;;;;;;4920278;29;20037;-82
2023/03/21 05:26:38;;;;;;;;;;;10.50;99.90;;;;;;4917684;29;19998;-81
2023/03/21 05:29:15;;;;;;;;;;;10.50;99.90;;;;;;4935274;29;20352;-81
2023/03/21 05:31:46;;;;;;;;;;;10.50;99.90;;;;;;4934622;29;19931;-82
2023/03/21 05:34:14;;;;;;;;;;;10.50;99.90;;;;;;4937531;29;19974;-81
2023/03/21 05:36:42;;;;;;;;;;;10.50;99.90;;;;;;4923834;29;20057;-82
2023/03/21 05:39:11;;;;;;;;;;;10.50;99.90;;;;;;4924039;29;19968;-83
2023/03/21 05:41:43;;;;;;;;;;;10.50;99.90;;;;;;4924363;29;19935;-81
2023/03/21 05:44:10;;;;;;;;;;;10.50;99.90;;;;;;4924578;29;19975;-82
2023/03/21 05:46:39;;;;;;;;;;;10.50;99.90;;;;;;4941195;29;19977;-80
2023/03/21 05:49:08;;;;;;;;;;;10.50;99.90;;;;;;4939004;29;19974;-84
2023/03/21 05:51:36;;;;;;;;;;;10.50;99.90;;;;;;4939979;29;19930;-84
2023/03/21 05:54:02;;;;;;;;;;;10.50;99.90;;;;;;4943288;29;20049;-83
2023/03/21 05:56:29;;;;;;;;;;;10.50;99.90;;;;;;4924964;29;20084;-83
2023/03/21 05:59:02;;;;;;;;;;;10.50;99.90;;;;;;4934459;29;19945;-81
2023/03/21 06:01:31;;;;;;;;;;;10.50;99.90;;;;;;4921016;29;19927;-81
2023/03/21 06:04:09;;;;;;;;;;;10.50;99.90;;;;;;4921302;29;19927;-83
2023/03/21 06:06:37;;;;;;;;;;;10.50;99.90;;;;;;4937493;29;19927;-83
2023/03/21 06:09:12;;;;;;;;;;;10.50;99.90;;;;;;4943054;29;19936;-83
2023/03/21 06:11:44;;;;;;;;;;;10.50;99.90;;;;;;4926145;29;20425;-80
2023/03/21 06:14:22;;;;;;;;;;;10.50;99.90;;;;;;4926753;29;19926;-81
2023/03/21 06:17:24;;;;;;;;;;;10.40;99.90;;;;;;4925206;29;20002;-83
2023/03/21 06:20:07;;;;;;;;;;;10.50;99.90;;;;;;4944222;29;19927;-81
2023/03/21 06:22:51;;;;;;;;;;;10.40;99.90;;;;;;4893354;29;19927;-81
2023/03/21 06:28:00;;;;;;;;;;;10.50;99.90;;;;;;4999085;23;20092;-82
2023/03/21 06:30:28;;;;;;;;;;;10.50;99.90;;;;;;4978114;28;19933;-81
2023/03/21 06:33:10;;;;;;;;;;;10.50;99.90;;;;;;4976590;28;19961;-82
2023/03/21 06:35:38;;;;;;;;;;;10.60;99.90;;;;;;4961059;28;19921;-81
2023/03/21 06:38:07;;;;;;;;;;;10.60;99.90;;;;;;4958813;28;19932;-82
2023/03/21 06:40:34;;;;;;;;;;;10.60;99.90;;;;;;4965806;28;19926;-82
2023/03/21 06:43:02;;;;;;;;;;;10.60;99.90;;;;;;4954603;28;19989;-79
2023/03/21 06:45:29;;;;;;;;;;;10.70;99.90;;;;;;4960099;28;19925;-79
2023/03/21 06:47:56;;;;;;;;;;;10.70;99.90;;;;;;4949774;28;20333;-80
2023/03/21 06:50:49;;;;;;;;;;;10.70;99.90;;;;;;4959838;28;19930;-80
2023/03/21 06:53:19;;;;;;;;;;;10.70;99.90;;;;;;4966047;28;19922;-80
2023/03/21 06:56:21;;;;;;;;;;;10.80;99.90;;;;;;4880165;29;19928;-81
2023/03/21 06:58:49;;;;;;;;;;;10.70;99.90;;;;;;4947458;28;20186;-83
2023/03/21 07:01:42;;;;;;;;;;;10.80;99.90;;;;;;4976521;28;20021;-82
2023/03/21 07:04:09;;;;;;;;;;;10.90;99.90;;;;;;4951454;29;19934;-83
2023/03/21 07:06:40;;;;;;;;;;;10.90;99.90;;;;;;4959148;28;19922;-80
2023/03/21 07:09:07;;;;;;;;;;;10.90;99.90;;;;;;4962814;28;19960;-82
2023/03/21 07:11:35;;;;;;;;;;;11.00;99.90;;;;;;4963136;28;19930;-82
2023/03/21 07:14:03;;;;;;;;;;;11.00;99.90;;;;;;4965852;28;20393;-83
2023/03/21 07:16:30;;;;;;;;;;;11.00;99.90;;;;;;4970136;28;19926;-83
2023/03/21 07:18:57;;;;;;;;;;;11.10;99.90;;;;;;4968728;28;19922;-83
2023/03/21 07:21:24;;;;;;;;;;;11.20;99.90;;;;;;4970226;28;19926;-80
2023/03/21 07:23:53;;;;;;;;;;;11.20;99.90;;;;;;4959462;28;19965;-82
2023/03/21 07:26:20;;;;;;;;;;;11.40;99.90;;;;;;4960812;28;20383;-84
2023/03/21 07:28:47;;;;;;;;;;;11.50;99.90;;;;;;4959848;28;19921;-83
2023/03/21 07:31:15;;;;;;;;;;;11.60;99.90;;;;;;4961329;28;19926;-81
2023/03/21 07:33:42;;;;;;;;;;;11.80;99.90;;;;;;4963661;28;20742;-79
2023/03/21 07:36:11;;;;;;;;;;;11.80;99.90;;;;;;4957678;28;19926;-82
2023/03/21 07:38:38;;;;;;;;;;;12.00;99.90;;;;;;4963836;28;19921;-80
2023/03/21 07:41:07;;;;;;;;;;;12.00;99.90;;;;;;4961195;28;19925;-79
2023/03/21 07:43:35;;;;;;;;;;;12.10;99.90;;;;;;4967724;28;20545;-79
2023/03/21 07:46:02;;;;;;;;;;;12.30;99.90;;;;;;4962560;28;19960;-81
2023/03/21 07:48:29;;;;;;;;;;;12.30;99.90;;;;;;4961615;28;19930;-81
2023/03/21 07:50:56;;;;;;;;;;;12.40;99.90;;;;;;4970093;28;19929;-80
2023/03/21 07:53:24;;;;;;;;;;;12.40;99.90;;;;;;4952168;28;19922;-80
2023/03/21 07:55:51;;;;;;;;;;;12.40;99.90;;;;;;4967530;28;19930;-83
2023/03/21 07:58:19;;;;;;;;;;;12.40;99.90;;;;;;4958084;28;20427;-79
2023/03/21 08:00:47;;;;;;;;;;;12.50;99.90;;;;;;4959469;28;19933;-78
2023/03/21 08:03:15;;;;;;;;;;;12.60;99.90;;;;;;4956429;28;19922;-80
2023/03/21 08:05:43;;;;;;;;;;;12.60;99.90;;;;;;4949120;28;19930;-83
2023/03/21 08:08:10;;;;;;;;;;;12.70;99.90;;;;;;4960364;28;19932;-83
2023/03/21 08:10:37;;;;;;;;;;;12.70;99.90;;;;;;4958718;28;20016;-84
2023/03/21 08:13:04;;;;;;;;;;;12.90;99.90;;;;;;4959209;28;20154;-84
2023/03/21 08:15:33;;;;;;;;;;;12.90;99.90;;;;;;4959550;28;20415;-83
2023/03/21 08:18:00;;;;;;;;;;;12.90;99.90;;;;;;4959282;28;19941;-86
2023/03/21 08:20:28;;;;;;;;;;;12.90;99.90;;;;;;4958595;28;19932;-82
2023/03/21 08:22:56;;;;;;;;;;;12.90;99.90;;;;;;4958238;29;19922;-86
2023/03/21 08:25:23;;;;;;;;;;;12.90;99.90;;;;;;4978271;28;19925;-84
2023/03/21 08:27:51;;;;;;;;;;;12.90;99.90;;;;;;4967816;28;19926;-83
2023/03/21 08:30:19;;;;;;;;;;;12.90;99.90;;;;;;4962763;28;19976;-84
2023/03/21 08:32:50;;;;;;;;;;;12.90;99.90;;;;;;4962063;28;19922;-84
2023/03/21 08:35:19;;;;;;;;;;;12.90;99.90;;;;;;4962370;28;19930;-85
2023/03/21 08:37:46;;;;;;;;;;;13.00;99.90;;;;;;4962848;28;19926;-84
2023/03/21 08:40:15;;;;;;;;;;;13.00;99.90;;;;;;4958262;28;19928;-84
2023/03/21 08:42:44;;;;;;;;;;;13.00;99.90;;;;;;4957193;28;20030;-84
2023/03/21 08:45:11;;;;;;;;;;;13.90;99.90;;;;;;4961550;28;19972;-84
2023/03/21 08:47:39;;;;;;;;;;;13.00;99.90;;;;;;4962708;28;20345;-80
2023/03/21 08:50:09;;;;;;;;;;;13.00;99.90;;;;;;4963133;28;20374;-80
2023/03/21 08:52:38;;;;;;;;;;;13.10;99.90;;;;;;4978813;28;19932;-80
2023/03/21 08:55:09;;;;;;;;;;;13.10;99.90;;;;;;4962373;28;19944;-79
2023/03/21 08:57:37;;;;;;;;;;;13.10;99.90;;;;;;4979528;28;20365;-79
2023/03/21 09:00:10;;;;;;;;;;;13.00;99.90;;;;;;4976608;28;19929;-78
2023/03/21 09:02:41;;;;;;;;;;;13.00;99.90;;;;;;4975847;28;20342;-78
2023/03/21 09:05:13;;;;;;;;;;;12.90;99.90;;;;;;4957706;28;19922;-78
2023/03/21 09:07:41;;;;;;;;;;;12.90;99.90;;;;;;4976975;28;19933;-77
2023/03/21 09:10:12;;;;;;;;;;;12.80;99.90;;;;;;4975934;28;19922;-79
2023/03/21 09:12:41;;;;;;;;;;;12.80;99.90;;;;;;4975071;28;20056;-78
2023/03/21 09:15:09;;;;;;;;;;;13.00;99.90;;;;;;4959754;28;20743;-81
2023/03/21 09:17:40;;;;;;;;;;;12.90;99.90;;;;;;4959208;28;19926;-80
2023/03/21 09:20:10;;;;;;;;;;;13.00;99.90;;;;;;4978930;28;19923;-81
2023/03/21 09:22:39;;;;;;;;;;;13.20;99.90;;;;;;4974015;28;19965;-81
2023/03/21 09:25:10;;;;;;;;;;;13.40;99.90;;;;;;4956703;28;19950;-81
2023/03/21 09:27:37;;;;;;;;;;;13.40;99.90;;;;;;4975729;28;19910;-81
2023/03/21 09:30:05;;;;;;;;;;;13.40;99.90;;;;;;4963514;28;19981;-81
2023/03/21 09:32:33;;;;;;;;;;;13.40;99.90;;;;;;4962848;28;19930;-81
2023/03/21 09:35:00;;;;;;;;;;;13.40;99.90;;;;;;4974958;28;19931;-82
2023/03/21 09:37:27;;;;;;;;;;;13.40;99.90;;;;;;4958168;28;19930;-82
2023/03/21 09:39:57;;;;;;;;;;;13.50;99.90;;;;;;4973825;28;20097;-80
2023/03/21 09:42:32;;;;;;;;;;;13.70;99.90;;;;;;4962526;28;19941;-82
2023/03/21 09:45:05;;;;;;;;;;;13.80;99.90;;;;;;4961225;28;19927;-82
2023/03/21 09:47:44;;;;;;;;;;;13.90;99.90;;;;;;4980147;28;20341;-80
2023/03/21 09:50:15;;;;;;;;;;;14.00;99.90;;;;;;4971307;28;20022;-81
2023/03/21 09:52:46;;;;;;;;;;;13.70;99.90;;;;;;4972672;28;19936;-82
2023/03/21 09:55:23;;;;;;;;;;;13.50;99.90;;;;;;4972563;28;19936;-83
2023/03/21 09:57:53;;;;;;;;;;;13.50;99.90;;;;;;4979622;28;19926;-83
2023/03/21 10:00:24;;;;;;;;;;;13.50;99.90;;;;;;4973437;28;19933;-83
2023/03/21 10:02:53;;;;;;;;;;;13.50;99.90;;;;;;4953485;28;19930;-82
2023/03/21 10:05:21;;;;;;;;;;;13.60;99.90;;;;;;4959452;28;20521;-82
2023/03/21 10:07:51;;;;;;;;;;;13.60;99.90;;;;;;4954060;28;19922;-84
2023/03/21 10:10:23;;;;;;;;;;;13.70;99.90;;;;;;4959234;28;19985;-83
2023/03/21 10:12:52;;;;;;;;;;;13.80;99.90;;;;;;4952578;28;19922;-82
2023/03/21 10:15:25;;;;;;;;;;;13.90;99.90;;;;;;4953461;28;19922;-84
2023/03/21 10:17:55;;;;;;;;;;;14.00;99.90;;;;;;4950731;28;19933;-84
2023/03/21 10:20:29;;;;;;;;;;;14.00;99.90;;;;;;4954462;28;19922;-80
2023/03/21 10:22:59;;;;;;;;;;;13.70;99.90;;;;;;4949475;29;19997;-80
2023/03/21 10:25:31;;;;;;;;;;;13.60;99.90;;;;;;4949438;29;19910;-80
2023/03/21 10:27:59;;;;;;;;;;;13.60;99.90;;;;;;4950363;28;19977;-79
2023/03/21 10:30:35;;;;;;;;;;;13.60;99.90;;;;;;4949390;29;19922;-79
2023/03/21 10:33:04;;;;;;;;;;;13.60;99.90;;;;;;4950531;29;19926;-85
2023/03/21 10:35:32;;;;;;;;;;;13.60;99.90;;;;;;4954686;28;19957;-84
2023/03/21 10:38:01;;;;;;;;;;;13.60;99.90;;;;;;4971432;28;19997;-82
2023/03/21 10:40:28;;;;;;;;;;;13.60;99.90;;;;;;4958256;28;20025;-83
2023/03/21 10:42:57;;;;;;;;;;;13.70;99.90;;;;;;4957825;29;19927;-84
2023/03/21 10:45:24;;;;;;;;;;;13.70;99.90;;;;;;4947964;28;20260;-82
2023/03/21 10:47:54;;;;;;;;;;;;;;;;;;4972437;28;20573;-80
2023/03/21 10:50:24;;;;;;;;;;;13.60;99.90;;;;;;4989263;28;19922;-80
2023/03/21 10:52:53;;;;;;;;;;;13.50;99.90;;;;;;4977231;28;19930;-80
2023/03/21 10:55:21;;;;;;;;;;;13.90;99.90;;;;;;4972794;28;19929;-81
2023/03/21 10:57:52;;;;;;;;;;;13.60;99.90;;;;;;4986929;28;19926;-81
2023/03/21 11:00:22;;;;;;;;;;;13.70;99.90;;;;;;4983150;28;20351;-80
2023/03/21 11:02:51;;;;;;;;;;;13.90;99.90;;;;;;4971378;28;19989;-80
2023/03/21 11:05:21;;;;;;;;;;;14.10;99.90;;;;;;4966687;23;19942;-73
2023/03/21 11:07:48;;;;;;;;;;;14.20;99.90;;;;;;4903326;29;20255;-74
2023/03/21 11:10:16;;;;;;;;;;;14.40;99.90;;;;;;4905714;29;19935;-74
2023/03/21 11:12:46;;;;;;;;;;;14.50;99.90;;;;;;4905428;29;19938;-74
2023/03/21 11:15:28;;;;;;;;;;;14.70;99.90;;;;;;4905200;29;19931;-74
2023/03/21 11:17:55;;;;;;;;;;;14.80;99.90;;;;;;4906761;29;19927;-74
2023/03/21 11:20:27;;;;;;;;;;;15.00;99.90;;;;;;4904683;29;20372;-74
2023/03/21 11:22:55;;;;;;;;;;;14.30;99.90;;;;;;4902271;29;19953;-74
2023/03/21 11:25:23;;;;;;;;;;;15.10;99.90;;;;;;4901392;29;20002;-74
2023/03/21 11:27:50;;;;;;;;;;;15.10;99.90;;;;;;4903621;29;19931;-74
2023/03/21 11:30:20;;;;;;;;;;;15.10;99.90;;;;;;4905040;29;19923;-74
2023/03/21 11:32:50;;;;;;;;;;;15.20;99.90;;;;;;4910738;29;20254;-76
2023/03/21 11:35:19;;;;;;;;;;;15.30;99.90;;;;;;4911271;29;19930;-74
2023/03/21 11:37:48;;;;;;;;;;;15.40;99.90;;;;;;4911790;29;19927;-74
2023/03/21 11:40:19;;;;;;;;;;;15.60;99.90;;;;;;4898021;29;19942;-74
2023/03/21 11:42:48;;;;;;;;;;;15.70;99.90;;;;;;4904857;29;20360;-74
2023/03/21 11:45:16;;;;;;;;;;;15.90;99.90;;;;;;4906873;29;20559;-74
2023/03/21 11:47:43;;;;;;;;;;;16.00;99.90;;;;;;4914597;29;19941;-74
2023/03/21 11:50:17;;;;;;;;;;;16.10;99.90;;;;;;4910852;29;20428;-73
2023/03/21 11:52:50;;;;;;;;;;;16.20;99.90;;;;;;4911533;29;20281;-75
2023/03/21 11:55:26;;;;;;;;;;;16.10;99.90;;;;;;4909782;29;20397;-73
2023/03/21 11:57:57;;;;;;;;;;;16.10;99.90;;;;;;4908356;29;19931;-73
2023/03/21 12:00:25;;;;;;;;;;;16.00;99.90;;;;;;4907773;29;19931;-75
2023/03/21 12:03:01;;;;;;;;;;;15.90;99.90;;;;;;4912468;29;19931;-74
2023/03/21 12:05:37;;;;;;;;;;;15.80;99.90;;;;;;4907469;29;19938;-74
2023/03/21 12:08:08;;;;;;;;;;;15.80;99.90;;;;;;4891572;29;20431;-74
2023/03/21 12:10:43;;;;;;;;;;;15.60;99.90;;;;;;4911126;29;20690;-73
2023/03/21 12:13:25;;;;;;;;;;;15.30;99.90;;;;;;4905270;29;19927;-74
2023/03/21 12:15:57;;;;;;;;;;;15.20;99.90;;;;;;4917646;29;19931;-74
2023/03/21 12:18:34;;;;;;;;;;;15.10;99.90;;;;;;4904501;29;19923;-74
2023/03/21 12:21:04;;;;;;;;;;;14.90;99.90;;;;;;4912627;29;19927;-74
2023/03/21 12:23:44;;;;;;;;;;;14.50;99.90;;;;;;4913129;29;20021;-72
2023/03/21 12:26:23;;;;;;;;;;;14.30;99.90;;;;;;4917028;29;19950;-75
2023/03/21 12:28:50;;;;;;;;;;;;;;;;;;4909128;29;19934;-75
2023/03/21 12:31:23;;;;;;;;;;;;;;;;;;4909871;29;19927;-73
2023/03/21 12:33:58;;;;;;;;;;;13.90;99.90;;;;;;4910148;29;19923;-74
2023/03/21 12:36:37;;;;;;;;;;;13.90;99.90;;;;;;4907059;29;19970;-73
2023/03/21 12:39:10;;;;;;;;;;;13.90;99.90;;;;;;4911247;29;19926;-74
2023/03/21 12:41:42;;;;;;;;;;;14.00;99.90;;;;;;4908888;29;19927;-74
2023/03/21 12:44:10;;;;;;;;;;;14.10;99.90;;;;;;4907304;29;19927;-75
2023/03/21 12:46:39;;;;;;;;;;;14.30;99.90;;;;;;4906734;29;19923;-75
2023/03/21 12:49:09;;;;;;;;;;;14.50;99.90;;;;;;4908390;29;20432;-74
2023/03/21 12:51:36;;;;;;;;;;;;;;;;;;4909858;29;19938;-74
2023/03/21 12:54:08;;;;;;;;;;;14.80;99.90;;;;;;4914520;29;19930;-74
2023/03/21 12:56:38;;;;;;;;;;;14.80;99.90;;;;;;4911501;29;19926;-74
2023/03/21 12:59:08;;;;;;;;;;;16.00;99.90;;;;;;4914205;29;20411;-75
2023/03/21 13:01:36;;;;;;;;;;;15.10;99.90;;;;;;4915047;29;19923;-74
2023/03/21 13:04:14;;;;;;;;;;;15.30;99.90;;;;;;4915409;29;19926;-74
2023/03/21 13:06:41;;;;;;;;;;;15.30;99.90;;;;;;4914575;29;19930;-74
2023/03/21 13:09:13;;;;;;;;;;;15.40;99.90;;;;;;4918284;29;19934;-75
2023/03/21 13:11:42;;;;;;;;;;;15.40;99.90;;;;;;4921826;29;19933;-74
2023/03/21 13:14:13;;;;;;;;;;;15.40;99.90;;;;;;4921100;29;19938;-75
2023/03/21 13:16:42;;;;;;;;;;;15.40;99.90;;;;;;4916028;29;19938;-75
2023/03/21 13:19:17;;;;;;;;;;;15.40;99.90;;;;;;4920491;29;19934;-75
2023/03/21 13:21:48;;;;;;;;;;;15.40;99.90;;;;;;4916441;29;19927;-75
2023/03/21 13:24:23;;;;;;;;;;;15.40;99.90;;;;;;4918016;29;20400;-74
2023/03/21 13:26:51;;;;;;;;;;;15.40;99.90;;;;;;4916272;29;20456;-74
2023/03/21 13:29:23;;;;;;;;;;;15.40;99.90;;;;;;4912851;29;19935;-74
2023/03/21 13:31:50;;;;;;;;;;;15.40;99.90;;;;;;4915413;29;19950;-74
2023/03/21 13:34:21;;;;;;;;;;;15.40;99.90;;;;;;4914737;29;19927;-74
2023/03/21 13:36:48;;;;;;;;;;;15.50;99.90;;;;;;4911117;29;19966;-74
2023/03/21 13:39:17;;;;;;;;;;;15.40;99.90;;;;;;4907738;29;20351;-74
2023/03/21 13:41:48;;;;;;;;;;;15.50;99.90;;;;;;4912083;29;19937;-73
2023/03/21 13:44:33;;;;;;;;;;;15.50;99.90;;;;;;4893586;29;19930;-73
2023/03/21 13:47:02;;;;;;;;;;;15.50;99.90;;;;;;4909315;29;19959;-73
2023/03/21 13:49:31;;;;;;;;;;;15.50;99.90;;;;;;4914758;29;19975;-74
2023/03/21 13:51:59;;;;;;;;;;;15.40;99.90;;;;;;4879043;29;19967;-74
2023/03/21 13:54:47;;;;;;;;;;;15.40;99.90;;;;;;4903630;29;20011;-74
2023/03/21 13:57:22;;;;;;;;;;;15.40;99.90;;;;;;4905538;29;20054;-75
2023/03/21 13:59:49;;;;;;;;;;;15.40;99.90;;;;;;4904096;29;19931;-74
2023/03/21 14:02:28;;;;;;;;;;;15.30;99.90;;;;;;4902487;29;19931;-75
2023/03/21 14:04:59;;;;;;;;;;;15.40;99.90;;;;;;4905468;29;19981;-75
2023/03/21 14:07:27;;;;;;;;;;;15.40;99.90;;;;;;4895931;29;19923;-75
2023/03/21 14:09:55;;;;;;;;;;;15.60;99.90;;;;;;4899792;29;19985;-76
2023/03/21 14:12:24;;;;;;;;;;;15.60;99.90;;;;;;4909088;29;19930;-75
2023/03/21 14:14:53;;;;;;;;;;;15.70;99.90;;;;;;4905244;29;19965;-75
2023/03/21 14:17:24;;;;;;;;;;;15.70;99.90;;;;;;4897894;29;20003;-76
2023/03/21 14:19:52;;;;;;;;;;;15.90;99.90;;;;;;4906323;29;19927;-74
2023/03/21 14:22:22;;;;;;;;;;;16.00;99.90;;;;;;4911286;29;19931;-74
2023/03/21 14:24:54;;;;;;;;;;;16.00;99.90;;;;;;4908095;29;19931;-74
2023/03/21 14:27:21;;;;;;;;;;;16.00;99.90;;;;;;4906471;29;20778;-74
2023/03/21 14:29:52;;;;;;;;;;;17.00;99.90;;;;;;4905183;29;19986;-74
2023/03/21 14:32:20;;;;;;;;;;;15.80;99.90;;;;;;4904837;29;19933;-73
2023/03/21 14:34:47;;;;;;;;;;;15.70;99.90;;;;;;4903278;29;19931;-73
2023/03/21 14:37:26;;;;;;;;;;;15.70;99.90;;;;;;4897510;29;20664;-74
2023/03/21 14:39:57;;;;;;;;;;;14.20;99.90;;;;;;4902204;29;19926;-74
2023/03/21 14:42:25;;;;;;;;;;;15.60;99.90;;;;;;4899659;29;20443;-74
2023/03/21 14:44:54;;;;;;;;;;;15.60;99.90;;;;;;4905422;29;19927;-74
2023/03/21 14:47:22;;;;;;;;;;;15.70;99.90;;;;;;4905930;29;19961;-74